createdAt,value
2023-02-11T00:00:02.847Z,31.05
2023-02-11T00:01:37.924Z,31.15
2023-02-11T00:03:10.972Z,30.63
2023-02-11T00:04:43.714Z,30.00
2023-02-11T00:06:15.817Z,30.83
2023-02-11T00:07:48.538Z,30.85
2023-02-11T00:09:21.242Z,29.40
2023-02-11T00:10:53.296Z,29.95
2023-02-11T00:12:26.327Z,30.73
2023-02-11T00:14:00.576Z,30.85
2023-02-11T00:15:33.299Z,31.17
2023-02-11T00:17:07.486Z,29.98
2023-02-11T00:18:40.300Z,30.42
2023-02-11T00:20:13.008Z,30.42
2023-02-11T00:21:45.737Z,30.65
2023-02-11T00:23:18.463Z,30.42
2023-02-11T00:24:54.153Z,30.00
2023-02-11T00:26:28.268Z,29.67
2023-02-11T00:28:01.032Z,31.02
2023-02-11T00:29:33.751Z,30.88
2023-02-11T00:31:07.428Z,31.10
2023-02-11T00:32:42.569Z,31.27
2023-02-11T00:34:15.313Z,31.17
2023-02-11T00:35:47.052Z,30.92
2023-02-11T00:37:19.776Z,31.42
2023-02-11T00:38:54.006Z,30.23
2023-02-11T00:40:26.732Z,31.38
2023-02-11T00:42:00.114Z,31.17
2023-02-11T00:43:31.926Z,31.48
2023-02-11T00:45:05.534Z,31.48
2023-02-11T00:46:38.297Z,29.80
2023-02-11T00:48:12.381Z,29.58
2023-02-11T00:49:45.190Z,30.88
2023-02-11T00:51:17.935Z,31.27
2023-02-11T00:52:50.710Z,30.52
2023-02-11T00:54:22.469Z,30.23
2023-02-11T00:55:55.154Z,31.20
2023-02-11T00:57:27.916Z,30.27
2023-02-11T00:59:00.595Z,31.70
2023-02-11T01:00:32.342Z,30.30
2023-02-11T01:02:05.162Z,30.33
2023-02-11T01:03:39.692Z,29.20
2023-02-11T01:05:12.582Z,29.83
2023-02-11T01:06:45.349Z,29.77
2023-02-11T01:08:17.136Z,29.63
2023-02-11T01:09:49.834Z,30.85
2023-02-11T01:11:22.996Z,31.05
2023-02-11T01:12:55.996Z,28.95
2023-02-11T01:14:28.836Z,30.73
2023-02-11T01:16:01.597Z,30.40
2023-02-11T01:17:34.799Z,29.45
2023-02-11T01:19:08.827Z,30.10
2023-02-11T01:20:40.677Z,29.40
2023-02-11T01:22:13.438Z,31.35
2023-02-11T01:23:46.264Z,30.95
2023-02-11T01:25:19.300Z,30.83
2023-02-11T01:26:52.143Z,29.70
2023-02-11T01:28:26.988Z,31.95
2023-02-11T01:29:59.846Z,30.92
2023-02-11T01:31:33.072Z,30.75
2023-02-11T01:33:05.854Z,29.88
2023-02-11T01:34:39.903Z,29.23
2023-02-11T01:36:13.494Z,30.48
2023-02-11T01:37:46.214Z,29.95
2023-02-11T01:39:18.911Z,31.17
2023-02-11T01:40:53.199Z,31.17
2023-02-11T01:42:25.924Z,29.70
2023-02-11T01:43:58.984Z,29.35
2023-02-11T01:46:18.395Z,30.23
2023-02-11T01:47:51.136Z,28.85
2023-02-11T01:49:28.506Z,30.17
2023-02-11T01:51:07.146Z,30.00
2023-02-11T01:52:42.520Z,30.67
2023-02-11T01:54:36.592Z,29.42
2023-02-11T01:56:29.858Z,28.33
2023-02-11T01:58:05.886Z,29.45
2023-02-11T01:59:41.790Z,31.02
2023-02-11T02:01:18.656Z,28.95
2023-02-11T02:02:57.012Z,29.17
2023-02-11T02:04:35.430Z,29.83
2023-02-11T02:06:15.906Z,28.88
2023-02-11T02:07:57.335Z,29.98
2023-02-11T02:09:35.526Z,29.40
2023-02-11T02:11:08.751Z,28.40
2023-02-11T02:12:41.526Z,28.40
2023-02-11T02:14:13.361Z,28.90
2023-02-11T02:15:51.764Z,28.17
2023-02-11T02:17:35.042Z,29.92
2023-02-11T02:19:29.982Z,29.50
2023-02-11T02:21:42.004Z,28.85
2023-02-11T02:23:30.529Z,28.17
2023-02-11T02:25:38.690Z,28.33
2023-02-11T02:27:30.391Z,27.20
2023-02-11T02:29:30.326Z,26.67
2023-02-11T02:31:57.034Z,27.25
2023-02-11T02:33:49.714Z,27.25
2023-02-11T02:35:32.088Z,28.30
2023-02-11T02:37:10.342Z,27.20
2023-02-11T02:38:52.172Z,27.48
2023-02-11T02:40:30.367Z,27.17
2023-02-11T02:42:03.481Z,27.15
2023-02-11T02:43:39.757Z,28.20
2023-02-11T02:45:13.574Z,29.08
2023-02-11T02:46:46.593Z,28.95
2023-02-11T02:48:29.506Z,30.67
2023-02-11T02:50:04.011Z,29.77
2023-02-11T02:51:59.896Z,29.33
2023-02-11T02:53:45.137Z,28.50
2023-02-11T02:55:32.796Z,28.83
2023-02-11T02:57:20.499Z,29.90
2023-02-11T02:59:13.210Z,28.08
2023-02-11T03:00:59.152Z,27.98
2023-02-11T03:02:37.404Z,28.55
2023-02-11T03:04:18.270Z,28.42
2023-02-11T03:05:57.986Z,27.20
2023-02-11T03:07:38.509Z,28.17
2023-02-11T03:09:16.939Z,27.67
2023-02-11T03:10:52.346Z,27.35
2023-02-11T03:12:27.225Z,26.45
2023-02-11T03:14:04.067Z,27.33
2023-02-11T03:15:41.382Z,27.35
2023-02-11T03:17:17.047Z,26.98
2023-02-11T03:18:53.639Z,27.10
2023-02-11T03:20:27.857Z,27.52
2023-02-11T03:22:06.332Z,28.33
2023-02-11T03:23:40.801Z,27.63
2023-02-11T03:25:14.038Z,28.15
2023-02-11T03:26:50.925Z,26.48
2023-02-11T03:28:30.352Z,25.92
2023-02-11T03:30:11.283Z,26.85
2023-02-11T03:31:55.466Z,26.33
2023-02-11T03:33:32.629Z,27.88
2023-02-11T03:35:12.558Z,26.83
2023-02-11T03:36:49.739Z,27.63
2023-02-11T03:38:28.613Z,26.33
2023-02-11T03:40:05.727Z,26.83
2023-02-11T03:41:39.553Z,26.25
2023-02-11T03:43:18.463Z,26.95
2023-02-11T03:44:56.805Z,25.27
2023-02-11T03:46:32.422Z,26.48
2023-02-11T03:48:07.779Z,26.25
2023-02-11T03:49:42.604Z,26.73
2023-02-11T03:51:16.946Z,25.83
2023-02-11T03:52:50.852Z,26.70
2023-02-11T03:54:29.080Z,26.88
2023-02-11T03:56:06.133Z,27.67
2023-02-11T03:57:38.957Z,25.92
2023-02-11T03:59:11.647Z,26.90
2023-02-11T04:00:45.291Z,26.73
2023-02-11T04:02:18.042Z,26.33
2023-02-11T04:03:50.725Z,27.05
2023-02-11T04:05:23.555Z,26.02
2023-02-11T04:06:57.670Z,26.75
2023-02-11T04:08:31.865Z,25.95
2023-02-11T04:10:07.280Z,25.80
2023-02-11T04:11:39.996Z,26.02
2023-02-11T04:13:12.698Z,25.73
2023-02-11T04:14:44.521Z,26.33
2023-02-11T04:16:17.298Z,26.35
2023-02-11T04:17:49.077Z,25.45
2023-02-11T04:19:21.809Z,26.20
2023-02-11T04:20:53.535Z,26.25
2023-02-11T04:22:26.339Z,25.77
2023-02-11T04:23:58.049Z,26.08
2023-02-11T04:25:32.240Z,25.00
2023-02-11T04:27:05.053Z,25.90
2023-02-11T04:28:37.846Z,26.75
2023-02-11T04:30:10.537Z,25.75
2023-02-11T04:31:43.247Z,26.67
2023-02-11T04:33:14.973Z,26.05
2023-02-11T04:34:48.289Z,26.25
2023-02-11T04:36:21.059Z,27.20
2023-02-11T04:37:53.801Z,26.65
2023-02-11T04:39:26.511Z,27.08
2023-02-11T04:41:01.085Z,27.20
2023-02-11T04:42:33.786Z,26.27
2023-02-11T04:44:06.923Z,26.35
2023-02-11T04:45:39.638Z,26.67
2023-02-11T04:47:13.320Z,25.65
2023-02-11T04:48:46.056Z,26.33
2023-02-11T04:50:18.958Z,25.55
2023-02-11T04:51:51.981Z,26.23
2023-02-11T04:53:24.682Z,26.48
2023-02-11T04:54:57.442Z,26.60
2023-02-11T04:56:30.525Z,26.63
2023-02-11T04:58:03.219Z,26.65
2023-02-11T04:59:35.914Z,26.33
2023-02-11T05:01:08.006Z,26.40
2023-02-11T05:02:40.770Z,26.35
2023-02-11T05:04:12.562Z,26.85
2023-02-11T05:05:45.341Z,26.40
2023-02-11T05:07:17.078Z,25.58
2023-02-11T05:08:50.010Z,26.83
2023-02-11T05:10:22.740Z,27.90
2023-02-11T05:11:56.833Z,26.45
2023-02-11T05:13:29.584Z,26.15
2023-02-11T05:15:01.330Z,26.45
2023-02-11T05:16:34.568Z,26.45
2023-02-11T05:18:07.447Z,26.50
2023-02-11T05:19:40.231Z,26.48
2023-02-11T05:21:15.785Z,26.02
2023-02-11T05:22:48.747Z,25.60
2023-02-11T05:24:21.601Z,26.30
2023-02-11T05:25:54.316Z,25.30
2023-02-11T05:27:28.440Z,26.80
2023-02-11T05:29:01.318Z,27.42
2023-02-11T05:30:34.425Z,26.40
2023-02-11T05:32:08.927Z,26.65
2023-02-11T05:33:42.253Z,25.90
2023-02-11T05:35:15.012Z,25.65
2023-02-11T05:36:47.750Z,26.75
2023-02-11T05:38:20.472Z,26.30
2023-02-11T05:39:53.188Z,26.85
2023-02-11T05:41:25.893Z,25.35
2023-02-11T05:42:59.916Z,25.75
2023-02-11T05:44:32.627Z,26.23
2023-02-11T05:46:05.282Z,25.98
2023-02-11T05:47:37.987Z,24.00
2023-02-11T05:49:10.722Z,24.83
2023-02-11T05:50:43.488Z,25.58
2023-02-11T05:52:16.327Z,24.55
2023-02-11T05:53:49.110Z,24.67
2023-02-11T05:55:21.832Z,24.35
2023-02-11T05:56:53.779Z,24.15
2023-02-11T05:58:27.864Z,24.35
2023-02-11T06:00:00.578Z,24.88
2023-02-11T06:01:33.452Z,25.27
2023-02-11T06:03:06.375Z,23.63
2023-02-11T06:04:39.315Z,24.20
2023-02-11T06:06:12.803Z,23.88
2023-02-11T06:07:45.518Z,23.30
2023-02-11T06:09:17.301Z,23.88
2023-02-11T06:10:50.011Z,23.00
2023-02-11T06:12:22.788Z,23.98
2023-02-11T06:13:56.950Z,24.02
2023-02-11T06:15:29.740Z,24.45
2023-02-11T06:17:02.460Z,23.92
2023-02-11T06:18:35.148Z,29.10
2023-02-11T06:20:10.451Z,24.75
2023-02-11T06:21:44.556Z,35.10
2023-02-11T06:23:16.449Z,26.98
2023-02-11T06:25:00.928Z,35.15
2023-02-11T06:26:34.701Z,27.13
2023-02-11T06:28:07.479Z,25.33
2023-02-11T06:29:41.579Z,23.42
2023-02-11T06:31:14.858Z,24.02
2023-02-11T06:32:47.827Z,24.92
2023-02-11T06:34:19.676Z,23.40
2023-02-11T06:35:52.704Z,24.20
2023-02-11T06:37:24.662Z,24.60
2023-02-11T06:38:57.382Z,24.42
2023-02-11T06:40:30.131Z,25.35
2023-02-11T06:42:02.851Z,27.33
2023-02-11T06:43:35.566Z,25.75
2023-02-11T06:45:10.875Z,26.20
2023-02-11T06:46:43.677Z,24.35
2023-02-11T06:48:16.404Z,24.45
2023-02-11T06:49:49.082Z,23.70
2023-02-11T06:51:21.871Z,22.70
2023-02-11T06:52:54.562Z,22.20
2023-02-11T06:54:27.286Z,23.13
2023-02-11T06:56:04.534Z,22.77
2023-02-11T06:57:37.227Z,21.95
2023-02-11T06:59:12.539Z,23.65
2023-02-11T07:00:46.614Z,23.35
2023-02-11T07:02:20.981Z,23.67
2023-02-11T07:03:54.431Z,24.77
2023-02-11T07:05:27.133Z,24.25
2023-02-11T07:06:59.832Z,24.23
2023-02-11T07:08:33.464Z,22.70
2023-02-11T07:10:07.109Z,23.48
2023-02-11T07:11:40.123Z,23.10
2023-02-11T07:13:12.852Z,23.27
2023-02-11T07:14:45.707Z,22.40
2023-02-11T07:16:21.068Z,22.40
2023-02-11T07:17:53.812Z,22.35
2023-02-11T07:19:26.508Z,22.63
2023-02-11T07:20:59.210Z,22.38
2023-02-11T07:22:31.917Z,22.38
2023-02-11T07:24:10.770Z,21.85
2023-02-11T07:25:43.816Z,21.75
2023-02-11T07:27:16.517Z,22.02
2023-02-11T07:28:49.708Z,21.63
2023-02-11T07:30:22.764Z,21.35
2023-02-11T07:31:56.830Z,21.42
2023-02-11T07:33:29.582Z,22.55
2023-02-11T07:35:05.347Z,21.52
2023-02-11T07:36:38.464Z,21.10
2023-02-11T07:38:11.157Z,21.80
2023-02-11T07:39:43.859Z,22.33
2023-02-11T07:41:19.047Z,21.23
2023-02-11T07:42:51.756Z,22.23
2023-02-11T07:44:24.627Z,20.92
2023-02-11T07:45:57.409Z,22.33
2023-02-11T07:47:30.622Z,22.80
2023-02-11T07:49:03.516Z,21.60
2023-02-11T07:50:36.221Z,21.90
2023-02-11T07:52:08.956Z,21.30
2023-02-11T07:53:42.175Z,21.63
2023-02-11T07:55:14.990Z,22.83
2023-02-11T07:56:47.768Z,21.95
2023-02-11T07:58:20.483Z,23.48
2023-02-11T07:59:54.651Z,22.58
2023-02-11T08:01:28.560Z,29.38
2023-02-11T08:03:03.617Z,24.17
2023-02-11T08:04:36.335Z,25.15
2023-02-11T08:06:11.108Z,24.20
2023-02-11T08:07:43.782Z,24.25
2023-02-11T08:09:17.520Z,23.73
2023-02-11T08:10:50.537Z,24.02
2023-02-11T08:12:23.404Z,22.48
2023-02-11T08:13:57.508Z,23.30
2023-02-11T08:15:30.233Z,23.95
2023-02-11T08:17:02.958Z,23.02
2023-02-11T08:18:37.271Z,22.13
2023-02-11T08:20:10.804Z,22.88
2023-02-11T08:21:43.718Z,25.35
2023-02-11T08:23:16.440Z,22.73
2023-02-11T08:24:51.411Z,21.90
2023-02-11T08:26:27.018Z,23.83
2023-02-11T08:27:59.924Z,22.15
2023-02-11T08:29:32.775Z,22.92
2023-02-11T08:31:07.704Z,22.67
2023-02-11T08:32:40.439Z,22.52
2023-02-11T08:34:18.139Z,22.75
2023-02-11T08:35:50.840Z,23.42
2023-02-11T08:37:23.739Z,23.63
2023-02-11T08:39:08.622Z,23.92
2023-02-11T08:40:49.678Z,23.60
2023-02-11T08:42:22.755Z,24.35
2023-02-11T08:43:55.503Z,24.15
2023-02-11T08:45:28.484Z,23.30
2023-02-11T08:47:01.203Z,24.25
2023-02-11T08:48:33.983Z,23.85
2023-02-11T08:50:08.524Z,23.42
2023-02-11T08:51:41.310Z,24.10
2023-02-11T08:53:14.030Z,23.92
2023-02-11T08:54:47.071Z,24.67
2023-02-11T08:56:21.344Z,23.88
2023-02-11T08:57:54.036Z,24.30
2023-02-11T08:59:26.896Z,24.13
2023-02-11T09:00:59.666Z,25.40
2023-02-11T09:02:32.551Z,24.10
2023-02-11T09:04:06.173Z,24.67
2023-02-11T09:05:43.839Z,24.83
2023-02-11T09:07:16.586Z,23.42
2023-02-11T09:08:51.288Z,23.83
2023-02-11T09:10:24.002Z,22.95
2023-02-11T09:11:57.305Z,24.85
2023-02-11T09:13:30.050Z,24.27
2023-02-11T09:15:02.831Z,24.52
2023-02-11T09:16:37.772Z,24.20
2023-02-11T09:18:10.526Z,23.48
2023-02-11T09:19:43.256Z,23.33
2023-02-11T09:21:18.849Z,24.75
2023-02-11T09:22:51.584Z,24.27
2023-02-11T09:24:24.301Z,23.88
2023-02-11T09:25:57.020Z,23.55
2023-02-11T09:27:29.752Z,25.02
2023-02-11T09:29:03.349Z,25.40
2023-02-11T09:30:37.611Z,26.13
2023-02-11T09:32:10.519Z,24.13
2023-02-11T09:33:47.869Z,24.15
2023-02-11T09:35:20.705Z,24.63
2023-02-11T09:36:54.764Z,24.80
2023-02-11T09:38:27.515Z,23.95
2023-02-11T09:40:00.230Z,23.92
2023-02-11T09:41:47.796Z,24.63
2023-02-11T09:43:23.053Z,23.77
2023-02-11T09:44:55.808Z,24.15
2023-02-11T09:46:32.934Z,24.92
2023-02-11T09:48:11.374Z,23.80
2023-02-11T09:49:48.178Z,25.50
2023-02-11T09:51:30.523Z,24.50
2023-02-11T09:53:08.442Z,23.10
2023-02-11T09:54:50.640Z,24.33
2023-02-11T09:56:30.190Z,24.63
2023-02-11T09:58:06.176Z,23.48
2023-02-11T09:59:38.950Z,24.35
2023-02-11T10:01:23.998Z,23.83
2023-02-11T10:03:04.746Z,22.48
2023-02-11T10:04:52.643Z,23.05
2023-02-11T10:06:43.920Z,23.20
2023-02-11T10:08:24.746Z,23.23
2023-02-11T10:10:08.606Z,23.15
2023-02-11T10:11:53.202Z,24.15
2023-02-11T10:13:42.411Z,22.42
2023-02-11T10:15:27.504Z,23.63
2023-02-11T10:17:10.764Z,22.73
2023-02-11T10:18:59.530Z,22.25
2023-02-11T10:20:37.506Z,23.08
2023-02-11T10:22:16.945Z,22.98
2023-02-11T10:23:55.276Z,22.77
2023-02-11T10:25:30.660Z,23.33
2023-02-11T10:27:07.523Z,23.80
2023-02-11T10:28:43.295Z,23.92
2023-02-11T10:30:24.446Z,22.92
2023-02-11T10:31:58.683Z,23.00
2023-02-11T10:33:37.368Z,22.30
2023-02-11T10:35:16.134Z,22.88
2023-02-11T10:36:48.830Z,22.30
2023-02-11T10:38:21.584Z,21.52
2023-02-11T10:39:55.763Z,21.27
2023-02-11T10:41:33.505Z,22.02
2023-02-11T10:43:10.856Z,21.30
2023-02-11T10:44:50.493Z,22.15
2023-02-11T10:46:26.883Z,20.83
2023-02-11T10:48:00.171Z,22.73
2023-02-11T10:49:38.651Z,21.70
2023-02-11T10:51:19.405Z,22.30
2023-02-11T10:52:52.311Z,21.27
2023-02-11T10:54:25.019Z,20.92
2023-02-11T10:55:59.331Z,22.00
2023-02-11T10:57:37.359Z,22.02
2023-02-11T10:59:21.143Z,21.40
2023-02-11T11:00:57.139Z,21.95
2023-02-11T11:02:34.292Z,22.25
2023-02-11T11:04:07.507Z,21.58
2023-02-11T11:05:49.947Z,22.00
2023-02-11T11:07:24.360Z,21.58
2023-02-11T11:08:57.119Z,22.90
2023-02-11T11:10:36.793Z,22.25
2023-02-11T11:12:26.637Z,21.13
2023-02-11T11:14:03.219Z,18.90
2023-02-11T11:15:36.111Z,19.17
2023-02-11T11:17:19.750Z,19.75
2023-02-11T11:18:54.108Z,19.15
2023-02-11T11:20:27.840Z,20.52
2023-02-11T11:22:00.616Z,19.95
2023-02-11T11:23:35.701Z,18.90
2023-02-11T11:25:26.288Z,20.08
2023-02-11T11:27:01.410Z,20.60
2023-02-11T11:28:40.214Z,20.10
2023-02-11T11:30:17.682Z,19.83
2023-02-11T11:31:54.687Z,19.58
2023-02-11T11:33:29.578Z,18.60
2023-02-11T11:35:09.563Z,18.83
2023-02-11T11:36:42.310Z,19.63
2023-02-11T11:38:16.339Z,22.50
2023-02-11T11:39:56.512Z,20.00
2023-02-11T11:41:31.556Z,19.55
2023-02-11T11:43:08.189Z,19.75
2023-02-11T11:44:42.239Z,18.23
2023-02-11T11:46:23.673Z,18.20
2023-02-11T11:47:59.697Z,18.88
2023-02-11T11:49:38.449Z,18.85
2023-02-11T11:51:12.609Z,18.70
2023-02-11T11:52:51.622Z,18.92
2023-02-11T11:54:25.516Z,18.45
2023-02-11T11:56:03.870Z,18.90
2023-02-11T11:57:39.592Z,18.75
2023-02-11T11:59:16.553Z,18.55
2023-02-11T12:01:02.941Z,18.65
2023-02-11T12:03:00.146Z,18.05
2023-02-11T12:04:50.975Z,18.88
2023-02-11T12:06:32.045Z,17.80
2023-02-11T12:08:14.892Z,17.88
2023-02-11T12:09:59.457Z,18.40
2023-02-11T12:11:41.084Z,18.92
2023-02-11T12:13:24.918Z,18.63
2023-02-11T12:15:06.512Z,19.23
2023-02-11T12:16:52.915Z,17.67
2023-02-11T12:18:51.686Z,18.13
2023-02-11T12:20:33.024Z,17.08
2023-02-11T12:22:12.015Z,17.67
2023-02-11T12:23:56.943Z,17.50
2023-02-11T12:25:36.165Z,17.10
2023-02-11T12:27:14.639Z,17.80
2023-02-11T12:29:03.288Z,17.95
2023-02-11T12:30:50.797Z,18.55
2023-02-11T12:32:33.442Z,17.10
2023-02-11T12:34:29.827Z,17.50
2023-02-11T12:36:12.401Z,17.75
2023-02-11T12:38:08.228Z,18.13
2023-02-11T12:39:46.030Z,17.40
2023-02-11T12:41:55.888Z,17.33
2023-02-11T12:43:37.024Z,16.02
2023-02-11T12:45:22.657Z,17.60
2023-02-11T12:47:04.636Z,15.95
2023-02-11T12:49:12.627Z,17.20
2023-02-11T12:50:51.636Z,16.05
2023-02-11T12:52:37.831Z,15.63
2023-02-11T12:54:20.746Z,16.35
2023-02-11T12:55:58.910Z,15.75
2023-02-11T12:57:35.611Z,16.00
2023-02-11T12:59:14.489Z,16.33
2023-02-11T13:00:52.507Z,15.23
2023-02-11T13:02:34.845Z,15.57
2023-02-11T13:04:14.604Z,15.23
2023-02-11T13:05:50.548Z,14.02
2023-02-11T13:07:29.081Z,14.57
2023-02-11T13:09:05.303Z,15.60
2023-02-11T13:10:41.022Z,15.27
2023-02-11T13:12:33.014Z,16.48
2023-02-11T13:14:10.544Z,14.45
2023-02-11T13:15:44.548Z,15.00
2023-02-11T13:17:23.391Z,15.13
2023-02-11T13:19:03.693Z,15.98
2023-02-11T13:20:46.316Z,15.10
2023-02-11T13:22:25.063Z,14.38
2023-02-11T13:24:05.416Z,14.40
2023-02-11T13:25:45.110Z,14.05
2023-02-11T13:27:28.079Z,13.85
2023-02-11T13:29:16.387Z,14.15
2023-02-11T13:30:57.584Z,13.07
2023-02-11T13:33:14.113Z,14.40
2023-02-11T13:34:58.391Z,13.25
2023-02-11T13:36:33.258Z,13.07
2023-02-11T13:38:14.504Z,11.63
2023-02-11T13:39:57.524Z,11.50
2023-02-11T13:41:33.908Z,11.65
2023-02-11T13:43:12.919Z,11.57
2023-02-11T13:44:46.630Z,10.30
2023-02-11T13:46:19.968Z,10.90
2023-02-11T13:47:58.990Z,11.40
2023-02-11T13:49:40.431Z,10.95
2023-02-11T13:51:16.326Z,10.95
2023-02-11T13:52:59.550Z,10.90
2023-02-11T13:54:36.394Z,11.02
2023-02-11T13:56:11.282Z,10.60
2023-02-11T13:57:44.021Z,10.27
2023-02-11T13:59:46.914Z,10.68
2023-02-11T14:01:41.311Z,9.32
2023-02-11T14:03:50.499Z,9.70
2023-02-11T14:05:47.003Z,10.43
2023-02-11T14:07:46.093Z,10.93
2023-02-11T14:09:39.075Z,10.13
2023-02-11T14:11:46.626Z,10.75
2023-02-11T14:13:24.655Z,9.55
2023-02-11T14:15:28.117Z,9.93
2023-02-11T14:17:30.705Z,9.07
2023-02-11T14:19:03.608Z,16.08
2023-02-11T14:20:44.555Z,8.07
2023-02-11T14:22:20.443Z,8.88
2023-02-11T14:23:53.674Z,8.20
2023-02-11T14:25:28.151Z,8.35
2023-02-11T14:27:05.265Z,7.80
2023-02-11T14:28:39.620Z,7.97
2023-02-11T14:30:39.155Z,7.80
2023-02-11T14:32:24.783Z,7.30
2023-02-11T14:34:20.516Z,7.45
2023-02-11T14:36:03.342Z,7.30
2023-02-11T14:37:50.347Z,7.22
2023-02-11T14:39:33.651Z,6.97
2023-02-11T14:41:11.890Z,7.15
2023-02-11T14:42:45.013Z,7.05
2023-02-11T14:44:21.420Z,6.55
2023-02-11T14:45:57.001Z,6.45
2023-02-11T14:47:35.478Z,6.45
2023-02-11T14:49:14.516Z,6.57
2023-02-11T14:50:51.270Z,6.72
2023-02-11T14:52:29.300Z,6.50
2023-02-11T14:54:12.833Z,6.35
2023-02-11T14:55:48.801Z,6.78
2023-02-11T14:57:22.955Z,6.68
2023-02-11T14:58:56.624Z,6.50
2023-02-11T15:00:29.538Z,6.72
2023-02-11T15:02:02.348Z,7.20
2023-02-11T15:03:36.911Z,7.78
2023-02-11T15:05:21.634Z,8.50
2023-02-11T15:06:55.387Z,7.32
2023-02-11T15:08:30.003Z,7.25
2023-02-11T15:10:02.822Z,6.68
2023-02-11T15:11:40.147Z,6.32
2023-02-11T15:13:19.779Z,6.35
2023-02-11T15:14:55.991Z,5.80
2023-02-11T15:16:29.376Z,8.43
2023-02-11T15:18:05.189Z,13.40
2023-02-11T15:19:41.107Z,14.77
2023-02-11T15:21:14.208Z,16.27
2023-02-11T15:22:48.336Z,14.90
2023-02-11T15:24:26.590Z,15.13
2023-02-11T15:26:04.144Z,16.42
2023-02-11T15:27:41.183Z,16.15
2023-02-11T15:29:18.213Z,15.82
2023-02-11T15:30:59.466Z,17.45
2023-02-11T15:32:33.265Z,17.20
2023-02-11T15:34:09.300Z,16.35
2023-02-11T15:35:42.703Z,16.55
2023-02-11T15:37:20.855Z,16.42
2023-02-11T15:39:18.421Z,16.35
2023-02-11T15:40:56.596Z,15.90
2023-02-11T15:42:37.959Z,16.52
2023-02-11T15:44:32.402Z,16.60
2023-02-11T15:46:05.430Z,17.90
2023-02-11T15:47:38.612Z,18.15
2023-02-11T15:49:19.108Z,18.77
2023-02-11T15:50:55.446Z,20.05
2023-02-11T15:52:29.787Z,17.98
2023-02-11T15:54:04.701Z,18.00
2023-02-11T15:55:37.764Z,18.33
2023-02-11T15:57:11.542Z,17.27
2023-02-11T15:58:46.587Z,17.80
2023-02-11T16:00:24.489Z,17.20
2023-02-11T16:01:59.338Z,17.13
2023-02-11T16:03:33.237Z,17.58
2023-02-11T16:05:09.380Z,16.08
2023-02-11T16:06:47.451Z,17.95
2023-02-11T16:08:25.743Z,17.30
2023-02-11T16:09:59.301Z,17.80
2023-02-11T16:11:33.716Z,16.75
2023-02-11T16:13:20.024Z,17.05
2023-02-11T16:14:52.744Z,16.60
2023-02-11T16:16:29.966Z,16.15
2023-02-11T16:18:04.672Z,17.10
2023-02-11T16:19:43.692Z,16.95
2023-02-11T16:21:18.929Z,16.48
2023-02-11T16:22:51.871Z,17.48
2023-02-11T16:24:28.280Z,17.02
2023-02-11T16:26:08.336Z,16.73
2023-02-11T16:27:42.350Z,17.02
2023-02-11T16:29:17.512Z,16.60
2023-02-11T16:30:54.780Z,16.90
2023-02-11T16:32:30.589Z,15.88
2023-02-11T16:34:03.303Z,16.52
2023-02-11T16:35:37.321Z,16.15
2023-02-11T16:37:10.046Z,15.95
2023-02-11T16:38:42.730Z,16.17
2023-02-11T16:40:15.579Z,15.73
2023-02-11T16:41:50.447Z,16.20
2023-02-11T16:43:23.528Z,16.13
2023-02-11T16:44:56.474Z,15.38
2023-02-11T16:46:29.429Z,16.48
2023-02-11T16:48:03.546Z,16.80
2023-02-11T16:49:41.362Z,16.25
2023-02-11T16:51:14.377Z,15.75
2023-02-11T16:52:47.185Z,16.10
2023-02-11T16:54:20.935Z,15.98
2023-02-11T16:55:54.319Z,17.80
2023-02-11T16:57:30.038Z,16.92
2023-02-11T16:59:03.061Z,16.73
2023-02-11T17:00:36.724Z,15.93
2023-02-11T17:02:14.797Z,15.10
2023-02-11T17:03:49.144Z,15.00
2023-02-11T17:05:25.082Z,15.18
2023-02-11T17:06:58.782Z,15.50
2023-02-11T17:08:30.617Z,16.83
2023-02-11T17:10:03.400Z,15.13
2023-02-11T17:11:36.150Z,16.10
2023-02-11T17:13:09.096Z,16.13
2023-02-11T17:14:41.792Z,15.27
2023-02-11T17:16:20.566Z,15.88
2023-02-11T17:17:53.295Z,16.02
2023-02-11T17:19:27.358Z,14.88
2023-02-11T17:21:00.077Z,15.75
2023-02-11T17:22:32.812Z,15.77
2023-02-11T17:24:05.936Z,16.90
2023-02-11T17:25:39.000Z,16.17
2023-02-11T17:27:12.627Z,14.93
2023-02-11T17:28:47.466Z,15.40
2023-02-11T17:30:20.517Z,15.30
2023-02-11T17:31:54.133Z,16.20
2023-02-11T17:33:26.953Z,15.15
2023-02-11T17:35:01.037Z,15.07
2023-02-11T17:36:34.186Z,15.38
2023-02-11T17:38:06.902Z,16.10
2023-02-11T17:39:40.875Z,14.95
2023-02-11T17:41:13.706Z,15.82
2023-02-11T17:42:46.536Z,17.08
2023-02-11T17:44:19.321Z,17.05
2023-02-11T17:45:52.400Z,18.15
2023-02-11T17:47:25.306Z,17.33
2023-02-11T17:49:00.269Z,17.50
2023-02-11T17:50:36.681Z,18.25
2023-02-11T17:52:09.775Z,17.08
2023-02-11T17:53:42.456Z,18.98
2023-02-11T17:55:15.312Z,18.67
2023-02-11T17:56:50.710Z,18.27
2023-02-11T17:58:23.968Z,18.10
2023-02-11T17:59:56.755Z,17.50
2023-02-11T18:01:29.860Z,17.33
2023-02-11T18:03:03.650Z,17.58
2023-02-11T18:04:36.487Z,16.58
2023-02-11T18:06:10.571Z,16.80
2023-02-11T18:07:43.281Z,17.73
2023-02-11T18:09:15.994Z,17.38
2023-02-11T18:10:48.699Z,16.75
2023-02-11T18:12:25.547Z,17.50
2023-02-11T18:13:59.649Z,16.08
2023-02-11T18:15:34.412Z,16.00
2023-02-11T18:17:07.646Z,16.73
2023-02-11T18:18:40.327Z,16.92
2023-02-11T18:20:13.434Z,17.05
2023-02-11T18:21:48.782Z,17.08
2023-02-11T18:23:21.529Z,16.25
2023-02-11T18:24:55.290Z,16.73
2023-02-11T18:26:28.189Z,16.63
2023-02-11T18:28:00.949Z,16.98
2023-02-11T18:29:33.702Z,17.20
2023-02-11T18:31:07.521Z,16.95
2023-02-11T18:32:40.281Z,16.10
2023-02-11T18:34:13.347Z,17.15
2023-02-11T18:35:48.980Z,17.17
2023-02-11T18:37:23.207Z,17.48
2023-02-11T18:38:57.958Z,16.88
2023-02-11T18:40:30.687Z,16.98
2023-02-11T18:42:03.445Z,17.65
2023-02-11T18:43:36.965Z,16.85
2023-02-11T18:45:14.849Z,17.73
2023-02-11T18:46:47.516Z,17.23
2023-02-11T18:48:20.353Z,18.45
2023-02-11T18:49:53.208Z,17.02
2023-02-11T18:51:26.212Z,17.67
2023-02-11T18:53:00.231Z,17.83
2023-02-11T18:54:32.962Z,17.75
2023-02-11T18:56:09.006Z,17.83
2023-02-11T18:57:42.877Z,17.75
2023-02-11T18:59:15.668Z,17.88
2023-02-11T19:00:49.480Z,18.35
2023-02-11T19:02:22.222Z,18.48
2023-02-11T19:03:55.875Z,17.42
2023-02-11T19:05:33.156Z,17.30
2023-02-11T19:07:05.872Z,17.25
2023-02-11T19:08:38.946Z,17.35
2023-02-11T19:10:13.057Z,17.05
2023-02-11T19:11:49.706Z,16.88
2023-02-11T19:13:22.414Z,17.33
2023-02-11T19:14:55.169Z,18.08
2023-02-11T19:16:27.887Z,16.70
2023-02-11T19:18:00.639Z,17.48
2023-02-11T19:19:36.015Z,16.92
2023-02-11T19:21:09.995Z,17.95
2023-02-11T19:22:42.724Z,17.77
2023-02-11T19:24:19.629Z,18.83
2023-02-11T19:25:52.619Z,17.45
2023-02-11T19:27:25.534Z,17.15
2023-02-11T19:28:59.602Z,17.33
2023-02-11T19:30:32.578Z,18.42
2023-02-11T19:32:06.914Z,18.75
2023-02-11T19:33:39.655Z,19.98
2023-02-11T19:35:12.387Z,20.08
2023-02-11T19:36:45.239Z,20.60
2023-02-11T19:38:19.047Z,20.63
2023-02-11T19:39:53.154Z,20.65
2023-02-11T19:41:25.859Z,18.98
2023-02-11T19:42:58.711Z,17.73
2023-02-11T19:44:31.461Z,17.80
2023-02-11T19:46:04.796Z,18.10
2023-02-11T19:47:37.613Z,18.40
2023-02-11T19:49:12.326Z,17.92
2023-02-11T19:50:45.012Z,18.23
2023-02-11T19:52:17.735Z,18.30
2023-02-11T19:53:51.075Z,17.20
2023-02-11T19:55:25.105Z,16.55
2023-02-11T19:56:58.970Z,17.33
2023-02-11T19:58:31.641Z,17.00
2023-02-11T20:00:06.229Z,15.65
2023-02-11T20:01:39.081Z,16.90
2023-02-11T20:03:11.842Z,17.50
2023-02-11T20:04:44.688Z,17.25
2023-02-11T20:06:20.140Z,17.30
2023-02-11T20:07:52.826Z,16.65
2023-02-11T20:09:26.490Z,16.77
2023-02-11T20:11:05.860Z,20.60
2023-02-11T20:12:38.793Z,19.13
2023-02-11T20:14:14.630Z,18.33
2023-02-11T20:15:47.473Z,17.52
2023-02-11T20:17:20.223Z,16.15
2023-02-11T20:18:52.919Z,16.67
2023-02-11T20:20:25.669Z,16.35
2023-02-11T20:21:58.405Z,16.25
2023-02-11T20:23:30.240Z,16.60
2023-02-11T20:25:02.974Z,15.88
2023-02-11T20:26:40.803Z,17.15
2023-02-11T20:28:13.525Z,17.35
2023-02-11T20:29:46.457Z,17.02
2023-02-11T20:31:19.886Z,17.00
2023-02-11T20:32:52.620Z,17.80
2023-02-11T20:34:25.687Z,17.30
2023-02-11T20:36:00.154Z,16.40
2023-02-11T20:37:32.875Z,16.75
2023-02-11T20:39:07.064Z,16.00
2023-02-11T20:40:39.759Z,16.25
2023-02-11T20:42:14.872Z,16.52